PWSweather.com
Personal Weather Stations
Station Observations
TMASSANO
Herbertsville, Brick, NJ 08724

HerbertsvilleBrick, NJ 08724

Lat: 40.098, Lon: -74.096

Elevation: 16

Station Type: WS 2800

High Low Average
Temperature 50.6°F10.3°C 32.0°F0.0°C 40.3°F4.6°C
Dew Point 33.0°F0.6°C 25.7°F-3.5°C 29.5°F-1.4°C
Winds 6.3 mph 10.1 kmh Calm Calm 2.0 mph W3.2 kmh W
Wind Gusts 6.3 mph10.1 kmh -- 2.0 mph3.2 kmh
Humidity 85% 47% 67%
Pressure 30.14 in1020.7 mb 30.04 in1017.3 mb -
Precipitation 0.00 in0.0 mm - -
Hour Temp Dew Point Humidity Winds Wind Gusts Pressure Precip Precip Rate Daily Precip Total
12:00 AM 34.9°F1.6°C 25.7°F-3.5°C 69% 0.4 mph WSW0.6 kmh WSW 0.4 mph0.6 kmh 30.14 in1020.7 mb 0.00 in0.0 mm 0.00 in/hr0.0 mm/hr 0.00 in0.0 mm
12:30 AM 35.1°F1.7°C 26.3°F-3.2°C 70% Calm Calm -- 30.13 in1020.3 mb 0.00 in0.0 mm 0.00 in/hr0.0 mm/hr 0.00 in0.0 mm
01:00 AM 35.1°F1.7°C 26.7°F-2.9°C 71% 0.7 mph SW1.1 kmh SW 0.7 mph1.1 kmh 30.12 in1020.0 mb 0.00 in0.0 mm 0.00 in/hr0.0 mm/hr 0.00 in0.0 mm
01:30 AM 34.9°F1.6°C 26.5°F-3.1°C 71% 0.4 mph WSW0.6 kmh WSW 0.4 mph0.6 kmh 30.11 in1019.6 mb 0.00 in0.0 mm 0.00 in/hr0.0 mm/hr 0.00 in0.0 mm
02:00 AM 34.9°F1.6°C 26.7°F-2.9°C 72% 0.2 mph W0.3 kmh W 0.2 mph0.3 kmh 30.10 in1019.3 mb 0.00 in0.0 mm 0.00 in/hr0.0 mm/hr 0.00 in0.0 mm
02:30 AM 34.9°F1.6°C 27.1°F-2.7°C 73% 0.7 mph NW1.1 kmh NW 0.7 mph1.1 kmh 30.10 in1019.3 mb 0.00 in0.0 mm 0.00 in/hr0.0 mm/hr 0.00 in0.0 mm
03:00 AM 34.9°F1.6°C 27.1°F-2.7°C 73% 1.1 mph W1.8 kmh W 1.1 mph1.8 kmh 30.09 in1019.0 mb 0.00 in0.0 mm 0.00 in/hr0.0 mm/hr 0.00 in0.0 mm
03:30 AM 34.6°F1.4°C 27.4°F-2.6°C 75% 0.7 mph WSW1.1 kmh WSW 0.7 mph1.1 kmh 30.09 in1019.0 mb 0.00 in0.0 mm 0.00 in/hr0.0 mm/hr 0.00 in0.0 mm
04:00 AM 34.0°F1.1°C 26.8°F-2.9°C 75% Calm Calm -- 30.07 in1018.3 mb 0.00 in0.0 mm 0.00 in/hr0.0 mm/hr 0.00 in0.0 mm
04:30 AM 33.5°F0.8°C 26.6°F-3.0°C 76% 0.7 mph SSE1.1 kmh SSE 0.7 mph1.1 kmh 30.05 in1017.6 mb 0.00 in0.0 mm 0.00 in/hr0.0 mm/hr 0.00 in0.0 mm
05:00 AM 32.4°F0.2°C 25.7°F-3.5°C 76% Calm Calm -- 30.04 in1017.3 mb 0.00 in0.0 mm 0.00 in/hr0.0 mm/hr 0.00 in0.0 mm
05:30 AM 32.0°F0.0°C 26.0°F-3.3°C 78% 1.1 mph W1.8 kmh W 1.1 mph1.8 kmh 30.05 in1017.6 mb 0.00 in0.0 mm 0.00 in/hr0.0 mm/hr 0.00 in0.0 mm
06:00 AM 32.0°F0.0°C 26.9°F-2.8°C 81% 1.1 mph NW1.8 kmh NW 1.1 mph1.8 kmh 30.05 in1017.6 mb 0.00 in0.0 mm 0.00 in/hr0.0 mm/hr 0.00 in0.0 mm
06:30 AM 32.2°F0.1°C 27.1°F-2.7°C 81% 1.8 mph WSW2.9 kmh WSW 1.8 mph2.9 kmh 30.05 in1017.6 mb 0.00 in0.0 mm 0.00 in/hr0.0 mm/hr 0.00 in0.0 mm
07:00 AM 32.6°F0.3°C 28.0°F-2.2°C 83% 2.9 mph NW4.7 kmh NW 2.9 mph4.7 kmh 30.06 in1017.9 mb 0.00 in0.0 mm 0.00 in/hr0.0 mm/hr 0.00 in0.0 mm
07:30 AM 32.8°F0.4°C 28.4°F-2.0°C 84% 2.5 mph W4.0 kmh W 2.5 mph4.0 kmh 30.08 in1018.6 mb 0.00 in0.0 mm 0.00 in/hr0.0 mm/hr 0.00 in0.0 mm
08:00 AM 32.9°F0.5°C 28.6°F-1.9°C 84% 1.3 mph NNW2.1 kmh NNW 1.3 mph2.1 kmh 30.09 in1019.0 mb 0.00 in0.0 mm 0.00 in/hr0.0 mm/hr 0.00 in0.0 mm
08:30 AM 33.8°F1.0°C 29.4°F-1.4°C 84% 2.9 mph NW4.7 kmh NW 2.9 mph4.7 kmh 30.11 in1019.6 mb 0.00 in0.0 mm 0.00 in/hr0.0 mm/hr 0.00 in0.0 mm
09:00 AM 34.9°F1.6°C 30.8°F-0.7°C 85% 3.1 mph NW5.0 kmh NW 3.1 mph5.0 kmh 30.11 in1019.6 mb 0.00 in0.0 mm 0.00 in/hr0.0 mm/hr 0.00 in0.0 mm
09:30 AM 36.5°F2.5°C 31.5°F-0.3°C 82% 1.8 mph WSW2.9 kmh WSW 1.8 mph2.9 kmh 30.12 in1020.0 mb 0.00 in0.0 mm 0.00 in/hr0.0 mm/hr 0.00 in0.0 mm
10:00 AM 38.7°F3.7°C 32.8°F0.4°C 79% 2.9 mph W4.7 kmh W 2.9 mph4.7 kmh 30.12 in1020.0 mb 0.00 in0.0 mm 0.00 in/hr0.0 mm/hr 0.00 in0.0 mm
10:30 AM 41.0°F5.0°C 32.4°F0.2°C 71% 6.3 mph NW10.1 kmh NW 6.3 mph10.1 kmh 30.11 in1019.6 mb 0.00 in0.0 mm 0.00 in/hr0.0 mm/hr 0.00 in0.0 mm
11:00 AM 42.8°F6.0°C 33.0°F0.6°C 68% 4.7 mph WSW7.6 kmh WSW 4.7 mph7.6 kmh 30.09 in1019.0 mb 0.00 in0.0 mm 0.00 in/hr0.0 mm/hr 0.00 in0.0 mm
11:30 AM 44.6°F7.0°C 32.9°F0.5°C 63% 2.5 mph NW4.0 kmh NW 2.5 mph4.0 kmh 30.07 in1018.3 mb 0.00 in0.0 mm 0.00 in/hr0.0 mm/hr 0.00 in0.0 mm
12:00 PM 45.9°F7.7°C 32.4°F0.2°C 59% 4.0 mph W6.4 kmh W 4.0 mph6.4 kmh 30.06 in1017.9 mb 0.00 in0.0 mm 0.00 in/hr0.0 mm/hr 0.00 in0.0 mm
12:30 PM 46.3°F7.9°C 32.2°F0.1°C 58% 5.8 mph NW9.3 kmh NW 5.8 mph9.3 kmh 30.05 in1017.6 mb 0.00 in0.0 mm 0.00 in/hr0.0 mm/hr 0.00 in0.0 mm
01:00 PM 47.2°F8.4°C 32.2°F0.1°C 56% 3.1 mph NW5.0 kmh NW 3.1 mph5.0 kmh 30.05 in1017.6 mb 0.00 in0.0 mm 0.00 in/hr0.0 mm/hr 0.00 in0.0 mm
01:30 PM 47.7°F8.7°C 31.8°F-0.1°C 54% 3.4 mph W5.5 kmh W 3.4 mph5.5 kmh 30.04 in1017.3 mb 0.00 in0.0 mm 0.00 in/hr0.0 mm/hr 0.00 in0.0 mm
02:00 PM 48.4°F9.1°C 33.0°F0.6°C 55% 2.5 mph NW4.0 kmh NW 2.5 mph4.0 kmh 30.05 in1017.6 mb 0.00 in0.0 mm 0.00 in/hr0.0 mm/hr 0.00 in0.0 mm
02:30 PM 50.2°F10.1°C 32.9°F0.5°C 51% 1.3 mph W2.1 kmh W 1.3 mph2.1 kmh 30.05 in1017.6 mb 0.00 in0.0 mm 0.00 in/hr0.0 mm/hr 0.00 in0.0 mm
03:00 PM 50.6°F10.3°C 32.1°F0.1°C 49% 3.4 mph NW5.5 kmh NW 3.4 mph5.5 kmh 30.06 in1017.9 mb 0.00 in0.0 mm 0.00 in/hr0.0 mm/hr 0.00 in0.0 mm
03:30 PM 50.0°F10.0°C 31.7°F-0.2°C 49% 4.9 mph NW7.9 kmh NW 4.9 mph7.9 kmh 30.07 in1018.3 mb 0.00 in0.0 mm 0.00 in/hr0.0 mm/hr 0.00 in0.0 mm
03:34 PM 49.3°F9.6°C 29.9°F-1.2°C 47% 4.9 mph WSW7.9 kmh WSW 6.3 mph10.1 kmh 30.07 in1018.3 mb 0.00 in0.0 mm 0.00 in/hr0.0 mm/hr 0.00 in0.0 mm
03:35 PM 49.3°F9.6°C 29.9°F-1.2°C 47% 6.3 mph SW10.1 kmh SW 6.3 mph10.1 kmh 30.07 in1018.3 mb 0.00 in0.0 mm 0.00 in/hr0.0 mm/hr 0.00 in0.0 mm
04:00 PM 48.2°F9.0°C 29.9°F-1.2°C 49% 3.6 mph WNW5.8 kmh WNW 3.6 mph5.8 kmh 30.07 in1018.3 mb 0.00 in0.0 mm 0.00 in/hr0.0 mm/hr 0.00 in0.0 mm
04:30 PM 47.3°F8.5°C 30.5°F-0.8°C 52% 3.1 mph WNW5.0 kmh WNW 3.1 mph5.0 kmh 30.09 in1019.0 mb 0.00 in0.0 mm 0.00 in/hr0.0 mm/hr 0.00 in0.0 mm
05:00 PM 46.8°F8.2°C 29.6°F-1.3°C 51% 4.0 mph NNW6.4 kmh NNW 4.0 mph6.4 kmh 30.10 in1019.3 mb 0.00 in0.0 mm 0.00 in/hr0.0 mm/hr 0.00 in0.0 mm
05:30 PM 46.3°F7.9°C 29.5°F-1.4°C 52% 1.6 mph NW2.6 kmh NW 1.6 mph2.6 kmh 30.12 in1020.0 mb 0.00 in0.0 mm 0.00 in/hr0.0 mm/hr 0.00 in0.0 mm
06:00 PM 45.9°F7.7°C 30.2°F-1.0°C 54% 2.5 mph NNW4.0 kmh NNW 2.5 mph4.0 kmh 30.13 in1020.3 mb 0.00 in0.0 mm 0.00 in/hr0.0 mm/hr 0.00 in0.0 mm
06:30 PM 45.4°F7.4°C 30.5°F-0.8°C 56% 1.3 mph WNW2.1 kmh WNW 1.3 mph2.1 kmh 30.14 in1020.7 mb 0.00 in0.0 mm 0.00 in/hr0.0 mm/hr 0.00 in0.0 mm
07:00 PM 44.6°F7.0°C 29.9°F-1.2°C 56% 1.3 mph NW2.1 kmh NW 1.3 mph2.1 kmh 30.15 in1021.0 mb 0.00 in0.0 mm 0.00 in/hr0.0 mm/hr 0.00 in0.0 mm
07:30 PM 43.6°F6.4°C 29.3°F-1.5°C 57% 0.2 mph NW0.3 kmh NW 0.2 mph0.3 kmh 30.15 in1021.0 mb 0.00 in0.0 mm 0.00 in/hr0.0 mm/hr 0.00 in0.0 mm
08:00 PM 42.3°F5.7°C 29.0°F-1.7°C 59% 0.9 mph WNW1.4 kmh WNW 0.9 mph1.4 kmh 30.15 in1021.0 mb 0.00 in0.0 mm 0.00 in/hr0.0 mm/hr 0.00 in0.0 mm
08:30 PM 40.5°F4.7°C 28.1°F-2.2°C 61% 0.4 mph SSW0.6 kmh SSW 0.4 mph0.6 kmh 30.15 in1021.0 mb 0.00 in0.0 mm 0.00 in/hr0.0 mm/hr 0.00 in0.0 mm
09:00 PM 39.4°F4.1°C 27.8°F-2.3°C 63% Calm Calm -- 30.15 in1021.0 mb 0.00 in0.0 mm 0.00 in/hr0.0 mm/hr 0.00 in0.0 mm
09:30 PM 38.0°F3.3°C 26.5°F-3.1°C 63% Calm Calm -- 30.15 in1021.0 mb 0.00 in0.0 mm 0.00 in/hr0.0 mm/hr 0.00 in0.0 mm
10:00 PM 36.4°F2.4°C 25.8°F-3.4°C 65% 0.4 mph W0.6 kmh W 0.4 mph0.6 kmh 30.15 in1021.0 mb 0.00 in0.0 mm 0.00 in/hr0.0 mm/hr 0.00 in0.0 mm
10:30 PM 35.5°F1.9°C 25.6°F-3.6°C 67% Calm Calm -- 30.16 in1021.3 mb 0.00 in0.0 mm 0.00 in/hr0.0 mm/hr 0.00 in0.0 mm
11:00 PM 34.2°F1.2°C 25.0°F-3.9°C 69% Calm Calm -- 30.15 in1021.0 mb 0.00 in0.0 mm 0.00 in/hr0.0 mm/hr 0.00 in0.0 mm
11:30 PM 33.3°F0.7°C 24.6°F-4.1°C 70% Calm Calm -- 30.15 in1021.0 mb 0.00 in0.0 mm 0.00 in/hr0.0 mm/hr 0.00 in0.0 mm